Time;durP1;ratioP1;P1;durP2;ratioP2;P2;SDS_P1;SDS_P2;PMS_P1;PMS_P2;Temp;Humidity;BMP_temperature;BMP_pressure;BME280_temperature;BME280_humidity;BME280_pressure;Samples;Min_cycle;Max_cycle;Signal;HPM_P1;HPM_P2
2022/06/03 00:01:10;;;;;;;6.83;6.63;;;;;;;13.24;82.14;65562.91;5115725;28;20247;-72
2022/06/03 00:03:47;;;;;;;6.70;6.30;;;;;;;13.17;82.50;65558.25;5113880;28;20185;-71
2022/06/03 00:06:21;;;;;;;6.07;5.83;;;;;;;;;;5115074;28;20236;-72
2022/06/03 00:09:02;;;;;;;7.30;7.07;;;;;;;13.13;83.26;65553.81;5117200;28;20181;-72
2022/06/03 00:12:07;;;;;;;6.50;6.40;;;;;;;13.14;82.88;65552.31;5116749;28;20628;-73
2022/06/03 00:15:00;;;;;;;6.87;6.77;;;;;;;13.09;83.27;65546.22;5102199;28;20224;-71
2022/06/03 00:17:45;;;;;;;6.37;6.17;;;;;;;13.02;83.64;65541.03;5112142;28;20201;-71
2022/06/03 00:20:44;;;;;;;6.67;6.57;;;;;;;13.05;83.39;65544.38;5115942;28;20273;-71
2022/06/03 00:23:24;;;;;;;6.90;6.50;;;;;;;;;;5116309;28;20220;-72
2022/06/03 00:26:06;;;;;;;7.23;7.03;;;;;;;12.82;84.77;65517.34;5116812;28;20204;-72
2022/06/03 00:28:49;;;;;;;7.27;7.10;;;;;;;12.87;84.56;65525.50;5114555;28;20229;-72
2022/06/03 00:31:31;;;;;;;8.30;7.70;;;;;;;12.81;84.96;65523.47;5112395;28;20232;-71
2022/06/03 00:34:14;;;;;;;7.13;7.03;;;;;;;12.83;85.10;65538.72;5116085;28;20591;-71
2022/06/03 00:36:54;;;;;;;7.70;7.23;;;;;;;12.85;85.04;65523.25;5115245;28;20217;-72
2022/06/03 00:39:23;;;;;;;6.87;6.77;;;;;;;;;;5116547;28;20572;-71
2022/06/03 00:41:59;;;;;;;8.33;7.73;;;;;;;12.73;85.59;65512.56;5114377;28;20212;-71
2022/06/03 00:44:50;;;;;;;6.90;6.80;;;;;;;12.73;85.74;65509.38;5115052;28;20230;-72
2022/06/03 00:47:19;;;;;;;8.00;7.77;;;;;;;;;;5116029;28;20284;-72
2022/06/03 00:50:06;;;;;;;7.00;6.80;;;;;;;12.67;86.17;65503.84;5115966;28;20217;-71
2022/06/03 00:52:43;;;;;;;7.53;7.33;;;;;;;;;;5115763;28;20222;-71
2022/06/03 00:55:36;;;;;;;8.40;7.67;;;;;;;12.59;86.48;65494.41;5115885;28;20245;-71
2022/06/03 00:58:32;;;;;;;8.03;7.73;;;;;;;12.56;86.61;65489.00;5114884;28;20244;-71
2022/06/03 01:01:12;;;;;;;8.43;8.23;;;;;;;12.51;87.07;65490.72;5115752;28;20213;-71
2022/06/03 01:03:54;;;;;;;8.27;8.03;;;;;;;12.44;87.28;65478.31;5114694;28;20586;-69
2022/06/03 01:06:46;;;;;;;9.23;8.73;;;;;;;12.46;87.42;65479.97;5112758;28;20236;-71
2022/06/03 01:09:19;;;;;;;8.33;8.03;;;;;;;;;;5099155;28;20196;-71
2022/06/03 01:12:05;;;;;;;7.53;7.33;;;;;;;12.44;87.20;65477.75;5113178;28;20212;-71
2022/06/03 01:14:54;;;;;;;8.73;8.13;;;;;;;12.38;87.59;65474.78;5114937;28;20220;-71
2022/06/03 01:17:58;;;;;;;7.97;7.43;;;;;;;12.38;87.91;65469.59;5113696;28;20590;-71
2022/06/03 01:20:37;;;;;;;8.10;7.50;;;;;;;12.28;88.24;65468.88;5115726;28;20239;-71
2022/06/03 01:23:19;;;;;;;8.03;7.70;;;;;;;12.24;88.54;65456.09;5115460;28;20180;-71
2022/06/03 01:26:05;;;;;;;8.97;8.67;;;;;;;;;;5115084;28;20635;-70
2022/06/03 01:28:52;;;;;;;8.03;7.80;;;;;;;12.09;89.52;65437.97;5114034;28;20215;-71
2022/06/03 01:31:56;;;;;;;8.00;7.90;;;;;;;12.04;89.97;65432.41;5113325;28;20266;-71
2022/06/03 01:35:10;;;;;;;8.13;8.03;;;;;;;12.09;89.83;65442.59;5114194;28;20222;-70
2022/06/03 01:37:58;;;;;;;7.67;7.37;;;;;;;12.05;89.85;65445.97;5051617;28;20618;-71
2022/06/03 01:40:58;;;;;;;8.33;8.07;;;;;;;12.08;89.85;65438.91;5110963;28;20713;-71
2022/06/03 01:44:01;;;;;;;9.37;9.07;;;;;;;12.06;89.89;65439.25;5113713;28;20222;-71
2022/06/03 01:46:32;;;;;;;9.40;8.50;;;;;;;12.07;90.01;65437.78;5114602;28;20276;-71
2022/06/03 01:49:30;;;;;;;8.73;8.27;;;;;;;12.04;90.13;65434.44;5115164;28;20528;-71
2022/06/03 01:52:08;;;;;;;7.80;7.60;;;;;;;12.04;90.50;65435.00;5114637;28;20608;-72
2022/06/03 01:55:18;;;;;;;8.07;7.87;;;;;;;11.99;90.33;65429.44;5113715;28;20255;-71
2022/06/03 01:57:54;;;;;;;8.20;7.87;;;;;;;11.95;90.93;65427.63;5113065;28;20215;-71
2022/06/03 02:00:31;;;;;;;7.80;7.47;;;;;;;11.92;90.70;65421.13;5113962;28;20220;-71
2022/06/03 02:03:39;;;;;;;8.23;8.10;;;;;;;11.79;91.48;65423.41;5114970;28;20179;-72
2022/06/03 02:06:38;;;;;;;8.53;8.13;;;;;;;11.73;91.71;65403.19;5107380;28;20226;-72
2022/06/03 02:09:32;;;;;;;7.57;7.20;;;;;;;11.72;91.86;65397.44;5113803;28;20219;-71
2022/06/03 02:12:08;;;;;;;8.57;8.37;;;;;;;11.69;92.24;65401.91;5106123;28;20217;-72
2022/06/03 02:14:43;;;;;;;8.23;7.77;;;;;;;11.71;92.12;65398.91;5115036;28;20209;-71
2022/06/03 02:17:29;;;;;;;8.90;8.63;;;;;;;;;;5114734;28;20173;-72
2022/06/03 02:20:14;;;;;;;8.33;8.13;;;;;;;11.57;92.82;65380.78;5115133;28;20682;-71
2022/06/03 02:23:15;;;;;;;8.97;8.50;;;;;;;11.58;92.74;65381.91;5112524;28;20241;-71
2022/06/03 02:26:43;;;;;;;9.17;8.77;;;;;;;11.56;92.93;65384.88;4999242;28;20718;-72
2022/06/03 02:32:48;;;;;;;8.83;8.53;;;;;;;11.38;93.82;65362.31;5114218;28;20180;-71
2022/06/03 02:35:41;;;;;;;9.77;9.37;;;;;;;11.33;94.39;65354.16;5112287;28;20192;-71
2022/06/03 02:38:20;;;;;;;9.77;9.10;;;;;;;11.36;94.16;65373.66;5113440;28;20208;-71
2022/06/03 02:41:06;;;;;;;9.17;8.87;;;;;;;11.26;94.76;65355.31;5113739;28;20251;-71
2022/06/03 02:44:03;;;;;;;8.13;7.93;;;;;;;11.18;95.53;65356.81;5113050;28;20662;-70
2022/06/03 02:46:51;;;;;;;12.63;9.80;;;;;;;;;;5114760;28;20187;-71
2022/06/03 02:49:46;;;;;;;9.60;9.30;;;;;;;11.18;95.56;65343.84;5111655;28;20238;-71
2022/06/03 02:52:32;;;;;;;8.77;8.40;;;;;;;11.06;96.32;65330.53;5112349;28;20534;-71
2022/06/03 02:55:38;;;;;;;9.07;8.77;;;;;;;11.05;96.65;65345.00;5113789;28;20586;-72
2022/06/03 02:58:50;;;;;;;9.93;9.53;;;;;;;10.93;97.04;65305.72;5113538;28;20227;-71
2022/06/03 03:01:37;;;;;;;9.60;8.90;;;;;;;10.93;97.32;65316.09;5039951;28;20255;-72
2022/06/03 03:04:08;;;;;;;9.17;8.93;;;;;;;;;;5113725;28;20181;-72
2022/06/03 03:06:49;;;;;;;10.10;9.67;;;;;;;10.97;97.20;65315.91;5113499;28;20189;-71
2022/06/03 03:09:43;;;;;;;10.27;9.57;;;;;;;10.91;97.37;65311.84;5113925;28;20216;-72
2022/06/03 03:12:33;;;;;;;9.30;8.90;;;;;;;10.89;97.67;65314.28;5113940;28;20201;-72
2022/06/03 03:15:33;;;;;;;9.63;8.97;;;;;;;10.83;97.87;65299.84;5109228;28;20217;-71
2022/06/03 03:18:18;;;;;;;8.83;8.53;;;;;;;10.89;97.66;65311.69;5114012;28;20177;-72
2022/06/03 03:21:11;;;;;;;9.27;8.90;;;;;;;10.82;98.00;65301.31;5114111;28;20212;-72
2022/06/03 03:23:44;;;;;;;9.70;9.40;;;;;;;;;;5113300;28;20224;-71
2022/06/03 03:26:28;;;;;;;10.40;9.47;;;;;;;10.83;97.99;65302.44;5112922;28;20215;-70
2022/06/03 03:29:10;;;;;;;9.43;9.13;;;;;;;10.83;97.95;65318.00;5092916;28;20296;-72
2022/06/03 03:31:58;;;;;;;8.83;8.60;;;;;;;10.84;97.91;65308.72;5093824;28;20225;-72
2022/06/03 03:35:00;;;;;;;9.43;8.90;;;;;;;10.84;97.83;65308.72;5110775;28;20208;-71
2022/06/03 03:38:02;;;;;;;8.37;8.07;;;;;;;10.81;98.08;65297.63;5097628;28;20162;-72
2022/06/03 03:40:47;;;;;;;9.17;8.83;;;;;;;10.81;97.89;65310.59;5098435;28;20248;-72
2022/06/03 03:43:16;;;;;;;10.53;9.93;;;;;;;;;;5115069;28;20193;-71
2022/06/03 03:46:04;;;;;;;9.77;9.03;;;;;;;10.78;98.00;65294.84;5116506;28;20259;-71
2022/06/03 03:49:07;;;;;;;9.90;9.60;;;;;;;10.75;98.04;65299.88;5117826;28;20203;-72
2022/06/03 03:52:01;;;;;;;8.97;8.47;;;;;;;10.69;98.46;65287.47;5117145;28;20255;-73
2022/06/03 03:54:38;;;;;;;8.87;8.53;;;;;;;10.71;98.32;65295.44;5114449;28;20216;-71
2022/06/03 03:57:10;;;;;;;9.70;9.20;;;;;;;10.72;98.44;65298.59;5114991;28;20216;-71
2022/06/03 03:59:40;;;;;;;9.60;9.17;;;;;;;10.73;98.52;65291.91;5116124;28;20220;-71
2022/06/03 04:02:27;;;;;;;9.27;8.93;;;;;;;10.74;98.50;65290.97;5116997;28;20189;-71
2022/06/03 04:05:13;;;;;;;10.10;9.27;;;;;;;;;;5116723;28;20182;-72
2022/06/03 04:08:01;;;;;;;10.83;10.43;;;;;;;10.75;98.96;65294.69;5106259;28;20285;-71
2022/06/03 04:10:33;;;;;;;9.70;9.30;;;;;;;10.76;98.89;65295.22;5111959;28;20240;-71
2022/06/03 04:13:06;;;;;;;9.83;9.43;;;;;;;10.79;99.04;65295.41;5116569;28;20181;-71
2022/06/03 04:16:07;;;;;;;9.37;9.07;;;;;;;10.79;99.31;65298.56;5114681;28;20189;-71
2022/06/03 04:19:10;;;;;;;9.80;9.50;;;;;;;10.85;99.04;65309.84;5117177;28;20196;-71
2022/06/03 04:22:14;;;;;;;9.40;9.00;;;;;;;10.93;99.06;65311.50;5103351;28;20259;-71
2022/06/03 04:24:59;;;;;;;10.10;9.60;;;;;;;10.96;99.11;65316.84;5116488;28;20177;-72
2022/06/03 04:27:46;;;;;;;10.67;10.07;;;;;;;;;;5114019;28;20222;-71
2022/06/03 04:30:55;;;;;;;10.33;9.60;;;;;;;11.13;98.75;65348.69;5115786;28;20304;-71
2022/06/03 04:33:51;;;;;;;11.53;10.30;;;;;;;11.24;98.14;65347.91;5116296;28;20177;-72
2022/06/03 04:36:36;;;;;;;9.47;8.97;;;;;;;11.27;98.33;65348.63;5115371;28;20223;-71
2022/06/03 04:39:38;;;;;;;9.73;9.13;;;;;;;;;;5115303;28;21852;-71
2022/06/03 04:42:35;;;;;;;10.57;9.87;;;;;;;11.38;97.65;65368.06;5116388;28;20204;-71
2022/06/03 04:45:20;;;;;;;10.17;9.57;;;;;;;;;;5115317;28;20213;-71
2022/06/03 04:48:05;;;;;;;9.50;9.00;;;;;;;;;;5115332;28;20232;-71
2022/06/03 04:51:25;;;;;;;10.20;9.87;;;;;;;11.50;96.80;65375.63;5097592;28;20216;-71
2022/06/03 04:54:29;;;;;;;10.10;9.57;;;;;;;11.63;96.19;65390.03;5112336;28;20192;-71
2022/06/03 04:57:41;;;;;;;9.37;8.47;;;;;;;11.72;96.04;65402.09;5111633;28;20221;-71
2022/06/03 05:00:31;;;;;;;8.93;8.53;;;;;;;11.89;96.30;65418.34;5112674;28;20587;-71
2022/06/03 05:03:27;;;;;;;9.23;8.83;;;;;;;;;;5116284;28;20197;-71
2022/06/03 05:06:12;;;;;;;9.33;8.97;;;;;;;;;;5114857;28;20694;-71
2022/06/03 05:09:00;;;;;;;9.03;8.40;;;;;;;11.90;94.73;65424.13;5113719;28;20613;-72
2022/06/03 05:12:04;;;;;;;9.17;8.87;;;;;;;11.97;94.87;65426.69;5115563;28;20233;-72
2022/06/03 05:14:48;;;;;;;9.40;8.97;;;;;;;;;;5104960;28;20185;-72
2022/06/03 05:17:39;;;;;;;9.33;8.77;;;;;;;12.11;93.93;65442.22;5112096;28;20690;-71
2022/06/03 05:20:05;;;;;;;10.17;9.77;;;;;;;12.19;93.93;65450.53;5113939;28;20244;-73
2022/06/03 05:22:40;;;;;;;10.27;9.77;;;;;;;;;;5113248;28;20181;-71
2022/06/03 05:25:42;;;;;;;9.33;8.80;;;;;;;12.45;94.09;65484.63;5111491;28;20726;-72
2022/06/03 05:28:33;;;;;;;9.80;8.97;;;;;;;12.65;92.68;65508.88;5105406;28;20678;-73
2022/06/03 05:31:15;;;;;;;9.90;9.40;;;;;;;;;;5112451;28;20683;-72
2022/06/03 05:33:59;;;;;;;8.97;8.67;;;;;;;;;;5109413;28;20292;-70
2022/06/03 05:36:37;;;;;;;8.57;8.10;;;;;;;;;;5111978;28;20235;-71
2022/06/03 05:39:15;;;;;;;9.83;8.73;;;;;;;;;;5108316;28;20296;-71
2022/06/03 05:45:11;;;;;;;8.63;8.13;;;;;;;13.14;91.21;65556.97;5065532;28;20607;-73
2022/06/03 05:47:50;;;;;;;9.80;8.10;;;;;;;13.25;92.32;65563.44;5108546;28;20232;-72
2022/06/03 05:50:41;;;;;;;9.43;8.67;;;;;;;13.38;91.30;65573.25;5113311;28;20614;-72
2022/06/03 05:53:39;;;;;;;8.77;8.37;;;;;;;13.52;90.19;65588.25;5113343;28;20226;-72
2022/06/03 05:56:25;;;;;;;8.60;8.30;;;;;;;;;;5113122;28;20172;-72
2022/06/03 05:59:10;;;;;;;9.47;8.63;;;;;;;13.72;88.43;65620.34;5113664;28;20697;-72
2022/06/03 06:01:41;;;;;;;7.90;7.60;;;;;;;;;;5114655;28;20225;-72
2022/06/03 06:04:35;;;;;;;8.90;8.57;;;;;;;13.84;89.18;65628.44;5114615;28;20246;-73
2022/06/03 06:07:08;;;;;;;7.73;7.53;;;;;;;14.00;89.20;65645.69;5114558;28;20185;-74
2022/06/03 06:09:44;;;;;;;8.57;8.17;;;;;;;14.14;88.41;65660.69;5114405;28;20235;-73
2022/06/03 06:12:29;;;;;;;8.40;8.00;;;;;;;;;;5114863;28;20520;-73
2022/06/03 06:15:30;;;;;;;7.97;7.77;;;;;;;14.38;85.65;65695.22;5114359;28;20226;-73
2022/06/03 06:18:00;;;;;;;8.43;7.73;;;;;;;14.47;85.27;65691.63;5114947;28;20230;-72
2022/06/03 06:20:29;;;;;;;7.60;7.20;;;;;;;14.63;84.22;65714.09;5114657;28;20205;-72
2022/06/03 06:23:02;;;;;;;7.87;7.43;;;;;;;;;;5114386;28;20716;-72
2022/06/03 06:25:37;;;;;;;7.67;7.47;;;;;;;;;;5114480;28;20677;-71
2022/06/03 06:28:42;;;;;;;16.43;6.60;;;;;;;14.89;82.04;65743.03;5114609;28;20196;-72
2022/06/03 06:31:36;;;;;;;7.47;6.83;;;;;;;15.00;81.96;65754.69;5114032;28;20258;-73
2022/06/03 06:34:22;;;;;;;6.50;6.20;;;;;;;15.19;81.33;65777.91;5114281;28;20588;-73
2022/06/03 06:36:49;;;;;;;5.97;5.87;;;;;;;;;;5114673;28;20574;-72
2022/06/03 06:39:47;;;;;;;6.30;6.20;;;;;;;15.49;81.13;65811.28;5113861;28;20230;-72
2022/06/03 06:42:33;;;;;;;6.10;5.93;;;;;;;15.69;79.39;65833.03;5114485;28;20184;-72
2022/06/03 06:45:18;;;;;;;5.93;5.83;;;;;;;;;;5114179;28;20222;-72
2022/06/03 06:48:02;;;;;;;5.20;4.93;;;;;;;15.91;78.83;65854.91;5114076;28;20193;-72
2022/06/03 06:50:34;;;;;;;5.00;4.80;;;;;;;;;;5113870;28;20262;-72
2022/06/03 06:53:10;;;;;;;30.23;6.03;;;;;;;;;;5114135;28;20242;-72
2022/06/03 06:55:46;;;;;;;5.87;5.63;;;;;;;16.33;78.89;65900.59;5114008;28;20177;-73
2022/06/03 06:58:28;;;;;;;5.77;5.30;;;;;;;16.41;78.00;65912.13;5114064;28;20169;-73
2022/06/03 07:00:55;;;;;;;4.97;4.87;;;;;;;;;;5113762;28;20254;-72
2022/06/03 07:03:43;;;;;;;8.37;5.37;;;;;;;16.55;76.60;65923.97;5113676;28;20213;-72
2022/06/03 07:06:21;;;;;;;4.30;4.30;;;;;;;16.64;77.15;65934.56;5114884;28;20181;-72
2022/06/03 07:08:56;;;;;;;4.73;4.57;;;;;;;;;;5120728;28;20196;-72
2022/06/03 07:11:27;;;;;;;5.47;5.03;;;;;;;;;;5120419;28;20245;-72
2022/06/03 07:13:57;;;;;;;4.30;4.30;;;;;;;16.96;75.58;65963.91;5120506;28;20671;-72
2022/06/03 07:19:54;;;;;;;5.23;5.23;;;;;;;17.06;72.71;65975.03;5120360;28;20165;-72
2022/06/03 07:22:31;;;;;;;4.60;4.43;;;;;;;17.13;74.54;65987.53;5120660;28;20619;-72
2022/06/03 07:25:11;;;;;;;4.13;4.03;;;;;;;17.34;74.37;66010.94;5120560;28;20169;-72
2022/06/03 07:28:10;;;;;;;4.37;4.37;;;;;;;17.43;72.17;66015.75;5120547;28;20173;-73
2022/06/03 07:30:49;;;;;;;5.17;4.87;;;;;;;17.53;73.17;66031.56;5082383;28;20244;-72
2022/06/03 07:33:47;;;;;;;7.73;4.10;;;;;;;17.68;73.40;66050.94;5120265;28;20177;-73
2022/06/03 07:36:15;;;;;;;5.13;4.93;;;;;;;17.79;73.35;66055.34;5120479;28;20177;-73
2022/06/03 07:38:51;;;;;;;4.73;4.73;;;;;;;17.82;73.88;66056.06;5120450;28;20185;-73
2022/06/03 07:41:38;;;;;;;5.03;4.93;;;;;;;;;;5120068;28;20208;-73
2022/06/03 07:44:17;;;;;;;5.43;4.97;;;;;;;17.80;72.34;66061.72;5119711;28;20201;-73
2022/06/03 07:46:52;;;;;;;6.30;6.20;;;;;;;17.75;72.69;66064.00;5120354;28;20234;-73
2022/06/03 07:49:23;;;;;;;6.67;4.97;;;;;;;17.80;73.23;66064.34;5119981;28;20731;-72
2022/06/03 07:52:13;;;;;;;5.60;5.40;;;;;;;;;;5119736;28;20209;-73
2022/06/03 07:54:41;;;;;;;6.13;5.93;;;;;;;;;;5106775;28;20250;-73
2022/06/03 07:57:19;;;;;;;4.70;4.50;;;;;;;18.10;73.85;66088.81;5120123;28;20185;-73
2022/06/03 07:59:45;;;;;;;4.93;4.77;;;;;;;18.26;74.11;66106.09;5120155;28;20173;-72
2022/06/03 08:02:19;;;;;;;5.77;5.47;;;;;;;18.32;73.00;66118.63;5120007;28;20181;-72
2022/06/03 08:04:48;;;;;;;5.63;5.53;;;;;;;18.51;72.37;66141.34;5120019;28;20180;-73
2022/06/03 08:12:59;;;;;;;5.23;5.20;;;;;;;18.53;68.76;66140.94;5120472;28;20173;-73
2022/06/03 08:15:28;;;;;;;4.50;4.50;;;;;;;;;;5119858;28;20189;-73
2022/06/03 08:17:55;;;;;;;5.23;5.03;;;;;;;18.69;70.37;66153.56;5100927;28;20173;-73
2022/06/03 08:20:25;;;;;;;4.77;4.67;;;;;;;18.77;70.05;66167.75;5116007;28;20550;-72
2022/06/03 08:22:53;;;;;;;4.47;4.10;;;;;;;18.84;69.75;66178.19;5116596;28;20185;-72
2022/06/03 08:25:27;;;;;;;4.80;4.80;;;;;;;19.02;69.73;66194.56;5117070;28;20188;-73
2022/06/03 08:27:57;;;;;;;5.50;5.10;;;;;;;19.01;68.61;66188.19;5116626;28;20230;-73
2022/06/03 08:30:27;;;;;;;5.47;4.93;;;;;;;19.03;69.72;66188.31;5116585;28;20246;-72
2022/06/03 08:33:19;;;;;;;4.53;4.27;;;;;;;;;;5116319;28;20234;-73
2022/06/03 08:35:47;;;;;;;3.80;3.80;;;;;;;19.15;70.27;66211.69;5111743;28;20599;-74
2022/06/03 08:38:18;;;;;;;4.67;4.53;;;;;;;19.17;70.12;66206.03;5116563;28;20197;-73
2022/06/03 08:41:03;;;;;;;3.93;3.93;;;;;;;;;;5116159;28;20624;-73
2022/06/03 08:43:42;;;;;;;4.33;4.33;;;;;;;;;;5116535;28;20226;-73
2022/06/03 08:46:20;;;;;;;4.13;4.13;;;;;;;19.38;68.35;66228.94;5116512;28;20615;-72
2022/06/03 08:48:50;;;;;;;4.37;4.03;;;;;;;;;;5116573;28;20193;-72
2022/06/03 08:51:46;;;;;;;3.57;3.47;;;;;;;19.50;65.78;66248.16;5098003;28;20620;-73
2022/06/03 08:54:27;;;;;;;4.57;4.23;;;;;;;;;;5107288;28;20659;-73
2022/06/03 08:56:55;;;;;;;3.53;3.53;;;;;;;;;;5116020;28;20189;-73
2022/06/03 08:59:29;;;;;;;3.47;3.47;;;;;;;19.65;68.38;66264.38;5116460;28;20215;-73
2022/06/03 09:02:12;;;;;;;3.53;3.40;;;;;;;19.82;64.97;66276.97;5115845;28;20185;-73
2022/06/03 09:04:51;;;;;;;3.27;3.07;;;;;;;19.75;66.45;66275.00;5116735;28;20581;-73
2022/06/03 09:07:27;;;;;;;3.47;3.47;;;;;;;;;;5116360;28;20238;-73
2022/06/03 09:10:17;;;;;;;3.70;3.70;;;;;;;;;;5115896;28;20209;-73
2022/06/03 09:12:58;;;;;;;4.17;4.17;;;;;;;20.01;62.43;66298.78;5116191;28;20230;-73
2022/06/03 09:15:26;;;;;;;3.83;3.73;;;;;;;;;;5115613;28;20173;-74
2022/06/03 09:18:07;;;;;;;3.17;3.17;;;;;;;20.16;64.94;66319.69;5115777;28;20181;-74
2022/06/03 09:20:39;;;;;;;4.83;4.10;;;;;;;20.26;62.12;66264.94;5115373;28;20213;-74
2022/06/03 09:23:13;;;;;;;4.30;4.00;;;;;;;20.29;61.13;66334.78;5115991;28;20182;-73
2022/06/03 09:25:47;;;;;;;3.93;3.83;;;;;;;20.24;62.40;66323.38;5115708;28;20169;-73
2022/06/03 09:28:15;;;;;;;3.13;3.13;;;;;;;;;;5097596;28;20189;-73
2022/06/03 09:30:46;;;;;;;3.70;3.60;;;;;;;20.34;64.91;66335.09;5115285;28;20246;-73
2022/06/03 09:33:16;;;;;;;3.87;3.83;;;;;;;20.46;64.32;66355.31;5115305;28;20230;-73
2022/06/03 09:35:47;;;;;;;3.87;3.77;;;;;;;20.61;63.59;66364.75;5115567;28;20169;-73
2022/06/03 09:38:16;;;;;;;3.40;3.40;;;;;;;20.74;63.69;66378.72;5115500;28;20178;-73
2022/06/03 09:40:44;;;;;;;4.63;3.67;;;;;;;;;;5115048;28;20201;-73
2022/06/03 09:43:18;;;;;;;3.47;3.47;;;;;;;20.87;62.13;66392.69;5115648;28;20230;-73
2022/06/03 09:45:49;;;;;;;4.03;3.70;;;;;;;20.94;63.54;66405.25;5094631;28;20176;-73
2022/06/03 09:48:22;;;;;;;2.90;2.90;;;;;;;;;;5110216;28;20186;-72
2022/06/03 09:50:50;;;;;;;3.30;3.20;;;;;;;21.17;64.69;66423.63;5110068;28;20208;-71
2022/06/03 09:53:18;;;;;;;3.70;3.70;;;;;;;;;;5111198;28;20250;-73
2022/06/03 09:55:49;;;;;;;4.70;4.27;;;;;;;;;;5109220;28;20181;-72
2022/06/03 09:58:27;;;;;;;3.57;3.47;;;;;;;21.17;60.89;66423.63;5100603;28;20543;-73
2022/06/03 10:00:56;;;;;;;4.07;4.07;;;;;;;21.02;56.99;66414.75;5109085;28;20247;-72
2022/06/03 10:03:24;;;;;;;3.23;3.23;;;;;;;;;;5110188;28;20193;-73
2022/06/03 10:05:53;;;;;;;3.67;3.67;;;;;;;;;;5109510;28;20229;-72
2022/06/03 10:08:23;;;;;;;3.37;3.37;;;;;;;21.34;61.43;66449.44;5110398;28;20646;-72
2022/06/03 10:13:38;;;;;;;2.70;2.70;;;;;;;21.39;56.84;66449.75;5113223;28;20592;-68
2022/06/03 10:16:07;;;;;;;3.20;3.20;;;;;;;;;;5100369;28;20193;-71
2022/06/03 10:18:36;;;;;;;3.20;3.10;;;;;;;;;;5108609;28;20217;-71
2022/06/03 10:21:06;;;;;;;2.90;2.80;;;;;;;21.38;56.57;66446.00;5110056;28;20213;-72
2022/06/03 10:23:35;;;;;;;3.23;3.23;;;;;;;;;;5112007;28;20204;-71
2022/06/03 10:26:38;;;;;;;3.20;2.93;;;;;;;21.45;55.51;66455.91;5111333;28;20196;-72
2022/06/03 10:29:17;;;;;;;2.90;2.90;;;;;;;21.52;54.68;66469.59;5108902;28;20593;-72
2022/06/03 10:32:16;;;;;;;3.13;2.60;;;;;;;21.57;54.31;66469.91;5109312;28;20208;-73
2022/06/03 10:34:44;;;;;;;2.70;2.60;;;;;;;21.55;52.47;66467.66;5092959;28;20675;-71
2022/06/03 10:37:19;;;;;;;2.20;2.13;;;;;;;21.55;52.07;66472.94;5109227;28;20213;-72
2022/06/03 10:39:46;;;;;;;3.37;3.20;;;;;;;;;;5093596;28;20177;-73
2022/06/03 10:42:16;;;;;;;2.93;2.53;;;;;;;21.45;54.92;66463.84;5093326;28;20190;-73
2022/06/03 10:44:44;;;;;;;3.50;3.30;;;;;;;;;;5093911;28;20220;-71
2022/06/03 10:47:20;;;;;;;2.30;2.30;;;;;;;;;;5094062;28;20608;-72
2022/06/03 10:49:51;;;;;;;4.70;3.00;;;;;;;;;;5093333;28;20206;-72
2022/06/03 11:01:06;;;;;;;3.47;3.37;;;;;;;;;;5093401;28;20621;-72
2022/06/03 11:03:33;;;;;;;2.90;2.90;;;;;;;;;;5093642;28;20178;-72
2022/06/03 11:06:14;;;;;;;2.87;2.77;;;;;;;21.67;54.63;66481.09;5111529;28;20193;-72
2022/06/03 11:08:51;;;;;;;2.77;2.60;;;;;;;21.73;55.48;66494.63;5094995;28;20254;-69
2022/06/03 11:11:29;;;;;;;2.57;2.57;;;;;;;;;;5110319;28;20216;-73
2022/06/03 11:13:56;;;;;;;2.67;2.67;;;;;;;;;;5113159;28;20611;-71
2022/06/03 11:16:25;;;;;;;5.73;3.63;;;;;;;21.90;56.27;66511.00;5113564;28;20242;-72
2022/06/03 11:18:52;;;;;;;5.97;3.40;;;;;;;21.94;53.18;66515.50;5112629;28;20197;-72
2022/06/03 11:21:25;;;;;;;3.20;3.20;;;;;;;21.91;54.22;66507.38;5111637;28;20208;-70
2022/06/03 11:23:54;;;;;;;3.20;3.20;;;;;;;22.08;54.28;66522.66;5111067;28;20659;-72
2022/06/03 11:26:22;;;;;;;2.50;2.50;;;;;;;22.16;52.93;66540.13;5095107;28;20678;-72
2022/06/03 11:28:56;;;;;;;3.20;3.20;;;;;;;22.31;52.65;66548.44;5110742;28;20189;-71
2022/06/03 11:31:29;;;;;;;2.73;2.73;;;;;;;22.41;51.31;66561.72;5110649;28;20633;-71
2022/06/03 11:34:16;;;;;;;2.50;2.50;;;;;;;22.30;54.87;66546.75;5111762;28;20189;-70
2022/06/03 11:37:03;;;;;;;2.50;2.50;;;;;;;22.32;52.23;66560.13;5102072;28;20196;-73
2022/06/03 11:39:55;;;;;;;2.30;2.30;;;;;;;22.31;52.64;66550.53;5109968;28;20214;-71
2022/06/03 11:42:31;;;;;;;2.20;2.20;;;;;;;22.28;52.33;66555.09;5110463;28;20182;-73
2022/06/03 11:45:01;;;;;;;2.87;2.77;;;;;;;;;;5108284;28;20572;-72
2022/06/03 11:47:34;;;;;;;2.90;2.90;;;;;;;22.16;52.47;66534.84;5110229;28;20185;-69
2022/06/03 11:50:01;;;;;;;4.43;2.97;;;;;;;;;;5111757;28;20246;-70
2022/06/03 11:52:28;;;;;;;2.83;2.77;;;;;;;22.22;51.50;66541.56;5111443;28;20681;-69
2022/06/03 11:54:54;;;;;;;3.13;3.13;;;;;;;;;;5114998;28;20600;-69
2022/06/03 11:57:21;;;;;;;2.60;2.60;;;;;;;;;;5115403;28;20188;-69
2022/06/03 11:59:55;;;;;;;3.07;2.87;;;;;;;;;;5116076;28;20177;-69
2022/06/03 12:02:41;;;;;;;4.33;2.30;;;;;;;;;;5114332;28;20189;-69
2022/06/03 12:05:17;;;;;;;5.03;3.00;;;;;;;22.53;50.90;66581.00;5098774;28;20677;-69
2022/06/03 12:07:44;;;;;;;2.47;2.47;;;;;;;;;;5094511;28;20193;-69
2022/06/03 12:10:19;;;;;;;2.10;2.10;;;;;;;22.69;51.22;66593.06;5112809;28;20213;-70
2022/06/03 12:15:57;;;;;;;2.70;2.70;;;;;;;;;;5116852;28;20294;-70
2022/06/03 12:18:34;;;;;;;2.97;2.97;;;;;;;22.72;50.96;66601.72;5105963;28;20615;-69
2022/06/03 12:21:14;;;;;;;2.77;2.77;;;;;;;;;;5116870;28;20205;-70
2022/06/03 12:23:43;;;;;;;5.63;3.40;;;;;;;22.63;50.34;66586.34;5107422;28;20257;-70
2022/06/03 12:26:31;;;;;;;3.13;2.93;;;;;;;22.65;51.28;66595.97;5115296;28;20197;-70
2022/06/03 12:29:08;;;;;;;2.77;2.77;;;;;;;;;;5116388;28;20197;-69
2022/06/03 12:31:42;;;;;;;2.70;2.70;;;;;;;;;;5116426;28;20209;-70
2022/06/03 12:34:20;;;;;;;2.57;2.37;;;;;;;;;;5116406;28;20173;-70
2022/06/03 12:36:47;;;;;;;2.20;2.20;;;;;;;;;;5116569;28;20181;-70
2022/06/03 12:39:23;;;;;;;2.30;2.30;;;;;;;;;;5112989;28;20192;-69
2022/06/03 12:41:49;;;;;;;2.73;2.73;;;;;;;;;;5115578;28;20262;-70
2022/06/03 12:44:32;;;;;;;2.50;2.50;;;;;;;;;;5114758;28;20188;-70
2022/06/03 12:47:17;;;;;;;2.13;2.13;;;;;;;23.21;50.70;66650.22;5111938;28;20596;-73
2022/06/03 12:49:44;;;;;;;2.20;2.20;;;;;;;23.21;51.34;66650.22;5089706;28;21850;-70
2022/06/03 12:52:25;;;;;;;2.93;2.90;;;;;;;;;;5098054;28;20201;-71
2022/06/03 12:54:55;;;;;;;3.50;2.53;;;;;;;23.21;48.84;66650.22;5093473;28;20185;-72
2022/06/03 12:57:23;;;;;;;2.50;2.50;;;;;;;;;;5096836;28;20173;-72
2022/06/03 12:59:56;;;;;;;2.50;2.50;;;;;;;;;;5115547;28;20209;-72
2022/06/03 13:02:31;;;;;;;2.43;2.43;;;;;;;;;;5114834;28;20169;-73
2022/06/03 13:05:01;;;;;;;3.90;2.50;;;;;;;;;;5114494;28;20621;-72
2022/06/03 13:07:27;;;;;;;2.27;2.17;;;;;;;23.46;51.55;66685.06;5097577;28;20189;-73
2022/06/03 13:09:58;;;;;;;2.43;2.43;;;;;;;23.48;49.47;66679.91;5115588;28;20220;-73
2022/06/03 13:12:35;;;;;;;2.00;2.00;;;;;;;23.50;50.84;66690.09;5116280;28;20166;-72
2022/06/03 13:15:28;;;;;;;2.37;2.37;;;;;;;;;;5081105;28;20236;-72
2022/06/03 13:18:09;;;;;;;2.60;2.60;;;;;;;23.38;48.11;66676.66;5116734;28;20586;-73
2022/06/03 13:20:49;;;;;;;3.97;2.80;;;;;;;23.41;48.47;66671.50;5115783;28;20279;-73
2022/06/03 13:23:36;;;;;;;2.47;2.43;;;;;;;23.48;49.60;66679.34;5116116;28;20177;-73
2022/06/03 13:26:23;;;;;;;2.07;1.97;;;;;;;23.49;50.37;66680.47;5115451;28;20207;-73
2022/06/03 13:28:52;;;;;;;4.83;2.20;;;;;;;23.51;49.97;66690.69;5115430;28;20230;-73
2022/06/03 13:31:46;;;;;;;2.50;2.50;;;;;;;23.52;49.70;66689.72;5115293;28;20686;-73
2022/06/03 13:34:28;;;;;;;2.70;2.50;;;;;;;23.49;49.37;66685.78;5102226;28;20254;-73
2022/06/03 13:37:14;;;;;;;2.00;1.90;;;;;;;;;;5115872;28;20173;-73
2022/06/03 13:39:41;;;;;;;2.63;2.43;;;;;;;;;;5115344;28;20185;-74
2022/06/03 13:44:59;;;;;;;13.20;2.50;;;;;;;;;;5115655;28;20222;-73
2022/06/03 13:47:46;;;;;;;2.57;2.57;;;;;;;23.20;50.57;66654.41;5115068;28;20599;-72
2022/06/03 13:50:13;;;;;;;2.13;2.13;;;;;;;23.21;51.38;66654.94;5096579;28;20241;-72
2022/06/03 13:52:48;;;;;;;4.70;4.30;;;;;;;;;;5115910;28;20582;-73
2022/06/03 13:55:29;;;;;;;2.57;2.57;;;;;;;23.20;51.81;66657.03;5115285;28;20519;-72
2022/06/03 13:58:08;;;;;;;5.03;2.40;;;;;;;23.27;52.17;66666.97;5115105;28;20185;-73
2022/06/03 14:00:39;;;;;;;3.13;3.13;;;;;;;23.30;51.11;66673.00;5097055;28;20228;-73
2022/06/03 14:03:10;;;;;;;2.67;2.57;;;;;;;;;;5115188;28;20177;-73
2022/06/03 14:05:56;;;;;;;3.00;3.00;;;;;;;;;;5114835;28;20268;-73